sensor_id;sensor_type;location;lat;lon;timestamp;P1;durP1;ratioP1;P2;durP2;ratioP2
56373;SDS011;58212;47.034;7.376;2023-05-07T00:00:04;3.55;;;1.60;;
56373;SDS011;58212;47.034;7.376;2023-05-07T00:02:33;3.85;;;1.60;;
56373;SDS011;58212;47.034;7.376;2023-05-07T00:05:01;2.60;;;1.70;;
56373;SDS011;58212;47.034;7.376;2023-05-07T00:07:30;3.17;;;1.70;;
56373;SDS011;58212;47.034;7.376;2023-05-07T00:09:57;1.63;;;1.52;;
56373;SDS011;58212;47.034;7.376;2023-05-07T00:12:25;2.40;;;1.73;;
56373;SDS011;58212;47.034;7.376;2023-05-07T00:15:17;1.90;;;1.67;;
56373;SDS011;58212;47.034;7.376;2023-05-07T00:17:46;2.75;;;1.90;;
56373;SDS011;58212;47.034;7.376;2023-05-07T00:20:13;2.28;;;1.67;;
56373;SDS011;58212;47.034;7.376;2023-05-07T00:22:40;3.05;;;1.73;;
56373;SDS011;58212;47.034;7.376;2023-05-07T00:25:07;5.22;;;1.90;;
56373;SDS011;58212;47.034;7.376;2023-05-07T00:27:37;3.75;;;1.70;;
56373;SDS011;58212;47.034;7.376;2023-05-07T00:30:04;4.50;;;1.80;;
56373;SDS011;58212;47.034;7.376;2023-05-07T00:32:34;2.55;;;1.70;;
56373;SDS011;58212;47.034;7.376;2023-05-07T00:35:01;3.75;;;1.75;;
56373;SDS011;58212;47.034;7.376;2023-05-07T00:37:29;2.80;;;1.77;;
56373;SDS011;58212;47.034;7.376;2023-05-07T00:39:56;2.78;;;1.60;;
56373;SDS011;58212;47.034;7.376;2023-05-07T00:42:23;4.50;;;1.92;;
56373;SDS011;58212;47.034;7.376;2023-05-07T00:45:16;2.42;;;1.52;;
56373;SDS011;58212;47.034;7.376;2023-05-07T00:47:45;5.63;;;1.73;;
56373;SDS011;58212;47.034;7.376;2023-05-07T00:50:12;2.95;;;1.67;;
56373;SDS011;58212;47.034;7.376;2023-05-07T00:52:39;2.85;;;1.60;;
56373;SDS011;58212;47.034;7.376;2023-05-07T00:55:07;2.45;;;1.90;;
56373;SDS011;58212;47.034;7.376;2023-05-07T00:57:35;3.13;;;1.70;;
56373;SDS011;58212;47.034;7.376;2023-05-07T01:00:05;3.65;;;1.85;;
56373;SDS011;58212;47.034;7.376;2023-05-07T01:02:35;5.72;;;1.92;;
56373;SDS011;58212;47.034;7.376;2023-05-07T01:05:03;3.40;;;1.70;;
56373;SDS011;58212;47.034;7.376;2023-05-07T01:07:32;3.10;;;1.95;;
56373;SDS011;58212;47.034;7.376;2023-05-07T01:10:00;2.72;;;1.80;;
56373;SDS011;58212;47.034;7.376;2023-05-07T01:12:28;6.07;;;1.83;;
56373;SDS011;58212;47.034;7.376;2023-05-07T01:14:57;3.35;;;1.98;;
56373;SDS011;58212;47.034;7.376;2023-05-07T01:17:25;2.42;;;1.73;;
56373;SDS011;58212;47.034;7.376;2023-05-07T01:19:55;2.53;;;1.65;;
56373;SDS011;58212;47.034;7.376;2023-05-07T01:22:27;4.38;;;1.95;;
56373;SDS011;58212;47.034;7.376;2023-05-07T01:24:59;3.60;;;2.00;;
56373;SDS011;58212;47.034;7.376;2023-05-07T01:27:28;4.40;;;1.80;;
56373;SDS011;58212;47.034;7.376;2023-05-07T01:29:57;2.22;;;1.88;;
56373;SDS011;58212;47.034;7.376;2023-05-07T01:32:40;2.40;;;1.55;;
56373;SDS011;58212;47.034;7.376;2023-05-07T01:35:12;3.20;;;1.83;;
56373;SDS011;58212;47.034;7.376;2023-05-07T01:37:45;4.45;;;2.17;;
56373;SDS011;58212;47.034;7.376;2023-05-07T01:40:13;2.60;;;1.92;;
56373;SDS011;58212;47.034;7.376;2023-05-07T01:42:41;4.43;;;1.88;;
56373;SDS011;58212;47.034;7.376;2023-05-07T01:45:10;3.55;;;2.00;;
56373;SDS011;58212;47.034;7.376;2023-05-07T01:47:39;3.05;;;1.67;;
56373;SDS011;58212;47.034;7.376;2023-05-07T01:50:07;3.78;;;1.90;;
56373;SDS011;58212;47.034;7.376;2023-05-07T01:52:36;5.03;;;2.25;;
56373;SDS011;58212;47.034;7.376;2023-05-07T01:55:29;2.58;;;2.20;;
56373;SDS011;58212;47.034;7.376;2023-05-07T01:57:59;3.80;;;2.05;;
56373;SDS011;58212;47.034;7.376;2023-05-07T02:00:26;4.32;;;1.85;;
56373;SDS011;58212;47.034;7.376;2023-05-07T02:02:54;2.08;;;1.88;;
56373;SDS011;58212;47.034;7.376;2023-05-07T02:05:41;3.55;;;2.10;;
56373;SDS011;58212;47.034;7.376;2023-05-07T02:08:16;3.03;;;1.70;;
56373;SDS011;58212;47.034;7.376;2023-05-07T02:10:47;3.15;;;1.95;;
56373;SDS011;58212;47.034;7.376;2023-05-07T02:13:15;3.47;;;2.20;;
56373;SDS011;58212;47.034;7.376;2023-05-07T02:15:42;2.35;;;1.52;;
56373;SDS011;58212;47.034;7.376;2023-05-07T02:18:12;3.05;;;1.90;;
56373;SDS011;58212;47.034;7.376;2023-05-07T02:20:39;2.28;;;1.90;;
56373;SDS011;58212;47.034;7.376;2023-05-07T02:23:08;2.80;;;2.30;;
56373;SDS011;58212;47.034;7.376;2023-05-07T02:25:35;2.50;;;1.95;;
56373;SDS011;58212;47.034;7.376;2023-05-07T02:28:04;2.83;;;2.20;;
56373;SDS011;58212;47.034;7.376;2023-05-07T02:30:52;4.13;;;1.88;;
56373;SDS011;58212;47.034;7.376;2023-05-07T02:33:20;2.55;;;2.00;;
56373;SDS011;58212;47.034;7.376;2023-05-07T02:35:48;5.22;;;1.92;;
56373;SDS011;58212;47.034;7.376;2023-05-07T02:38:17;3.83;;;1.77;;
56373;SDS011;58212;47.034;7.376;2023-05-07T02:40:44;3.22;;;1.85;;
56373;SDS011;58212;47.034;7.376;2023-05-07T02:43:12;2.17;;;1.85;;
56373;SDS011;58212;47.034;7.376;2023-05-07T02:45:43;2.75;;;2.03;;
56373;SDS011;58212;47.034;7.376;2023-05-07T02:48:10;2.40;;;1.60;;
56373;SDS011;58212;47.034;7.376;2023-05-07T02:50:39;5.57;;;2.15;;
56373;SDS011;58212;47.034;7.376;2023-05-07T02:53:06;4.22;;;2.00;;
56373;SDS011;58212;47.034;7.376;2023-05-07T02:55:35;3.30;;;2.20;;
56373;SDS011;58212;47.034;7.376;2023-05-07T02:58:02;2.45;;;2.05;;
56373;SDS011;58212;47.034;7.376;2023-05-07T03:00:34;4.32;;;1.90;;
56373;SDS011;58212;47.034;7.376;2023-05-07T03:03:28;3.28;;;1.92;;
56373;SDS011;58212;47.034;7.376;2023-05-07T03:05:55;3.65;;;1.92;;
56373;SDS011;58212;47.034;7.376;2023-05-07T03:08:22;2.42;;;1.98;;
56373;SDS011;58212;47.034;7.376;2023-05-07T03:10:49;2.38;;;1.95;;
56373;SDS011;58212;47.034;7.376;2023-05-07T03:13:16;2.33;;;1.90;;
56373;SDS011;58212;47.034;7.376;2023-05-07T03:15:45;3.22;;;1.80;;
56373;SDS011;58212;47.034;7.376;2023-05-07T03:18:11;2.55;;;2.00;;
56373;SDS011;58212;47.034;7.376;2023-05-07T03:20:39;2.60;;;1.88;;
56373;SDS011;58212;47.034;7.376;2023-05-07T03:23:06;2.97;;;1.90;;
56373;SDS011;58212;47.034;7.376;2023-05-07T03:25:33;2.35;;;1.73;;
56373;SDS011;58212;47.034;7.376;2023-05-07T03:28:00;4.82;;;2.00;;
56373;SDS011;58212;47.034;7.376;2023-05-07T03:30:36;2.10;;;1.60;;
56373;SDS011;58212;47.034;7.376;2023-05-07T03:33:06;3.08;;;1.90;;
56373;SDS011;58212;47.034;7.376;2023-05-07T03:35:35;4.63;;;1.98;;
56373;SDS011;58212;47.034;7.376;2023-05-07T03:38:03;1.90;;;1.80;;
56373;SDS011;58212;47.034;7.376;2023-05-07T03:40:33;3.03;;;1.80;;
56373;SDS011;58212;47.034;7.376;2023-05-07T03:43:02;2.33;;;2.00;;
56373;SDS011;58212;47.034;7.376;2023-05-07T03:45:32;2.30;;;2.03;;
56373;SDS011;58212;47.034;7.376;2023-05-07T03:48:09;3.70;;;1.92;;
56373;SDS011;58212;47.034;7.376;2023-05-07T03:50:37;3.53;;;1.88;;
56373;SDS011;58212;47.034;7.376;2023-05-07T03:53:05;4.43;;;1.80;;
56373;SDS011;58212;47.034;7.376;2023-05-07T03:55:37;3.80;;;2.17;;
56373;SDS011;58212;47.034;7.376;2023-05-07T03:58:04;5.15;;;2.17;;
56373;SDS011;58212;47.034;7.376;2023-05-07T04:00:31;4.20;;;1.70;;
56373;SDS011;58212;47.034;7.376;2023-05-07T04:03:05;3.53;;;1.77;;
56373;SDS011;58212;47.034;7.376;2023-05-07T04:05:34;2.30;;;2.10;;
56373;SDS011;58212;47.034;7.376;2023-05-07T04:08:02;3.13;;;2.10;;
56373;SDS011;58212;47.034;7.376;2023-05-07T04:10:38;4.05;;;2.08;;
56373;SDS011;58212;47.034;7.376;2023-05-07T04:13:08;3.22;;;2.10;;
56373;SDS011;58212;47.034;7.376;2023-05-07T04:15:36;4.25;;;2.22;;
56373;SDS011;58212;47.034;7.376;2023-05-07T04:18:07;4.80;;;2.08;;
56373;SDS011;58212;47.034;7.376;2023-05-07T04:20:36;2.95;;;1.70;;
56373;SDS011;58212;47.034;7.376;2023-05-07T04:23:07;4.32;;;2.10;;
56373;SDS011;58212;47.034;7.376;2023-05-07T04:25:35;2.22;;;1.88;;
56373;SDS011;58212;47.034;7.376;2023-05-07T04:28:09;4.82;;;1.92;;
56373;SDS011;58212;47.034;7.376;2023-05-07T04:30:37;2.33;;;1.90;;
56373;SDS011;58212;47.034;7.376;2023-05-07T04:33:07;3.30;;;1.88;;
56373;SDS011;58212;47.034;7.376;2023-05-07T04:35:38;1.92;;;1.80;;
56373;SDS011;58212;47.034;7.376;2023-05-07T04:38:05;3.30;;;2.03;;
56373;SDS011;58212;47.034;7.376;2023-05-07T04:40:32;2.10;;;1.88;;
56373;SDS011;58212;47.034;7.376;2023-05-07T04:43:01;2.50;;;2.03;;
56373;SDS011;58212;47.034;7.376;2023-05-07T04:45:35;4.03;;;2.08;;
56373;SDS011;58212;47.034;7.376;2023-05-07T04:48:03;3.30;;;1.85;;
56373;SDS011;58212;47.034;7.376;2023-05-07T04:50:31;2.67;;;2.00;;
56373;SDS011;58212;47.034;7.376;2023-05-07T04:53:02;4.90;;;2.03;;
56373;SDS011;58212;47.034;7.376;2023-05-07T04:55:30;3.40;;;2.10;;
56373;SDS011;58212;47.034;7.376;2023-05-07T04:57:57;4.03;;;2.08;;
56373;SDS011;58212;47.034;7.376;2023-05-07T05:00:28;3.72;;;2.10;;
56373;SDS011;58212;47.034;7.376;2023-05-07T05:02:56;2.97;;;2.00;;
56373;SDS011;58212;47.034;7.376;2023-05-07T05:05:24;3.70;;;2.05;;
56373;SDS011;58212;47.034;7.376;2023-05-07T05:07:53;3.03;;;2.15;;
56373;SDS011;58212;47.034;7.376;2023-05-07T05:10:21;2.08;;;1.88;;
56373;SDS011;58212;47.034;7.376;2023-05-07T05:12:49;2.47;;;1.92;;
56373;SDS011;58212;47.034;7.376;2023-05-07T05:15:16;4.32;;;1.90;;
56373;SDS011;58212;47.034;7.376;2023-05-07T05:18:01;3.13;;;2.00;;
56373;SDS011;58212;47.034;7.376;2023-05-07T05:20:29;2.97;;;1.73;;
56373;SDS011;58212;47.034;7.376;2023-05-07T05:22:56;2.67;;;2.40;;
56373;SDS011;58212;47.034;7.376;2023-05-07T05:25:25;2.72;;;1.80;;
56373;SDS011;58212;47.034;7.376;2023-05-07T05:27:52;2.63;;;1.80;;
56373;SDS011;58212;47.034;7.376;2023-05-07T05:30:20;2.05;;;1.85;;
56373;SDS011;58212;47.034;7.376;2023-05-07T05:32:47;3.30;;;2.30;;
56373;SDS011;58212;47.034;7.376;2023-05-07T05:35:15;2.28;;;1.95;;
56373;SDS011;58212;47.034;7.376;2023-05-07T05:37:43;2.70;;;2.45;;
56373;SDS011;58212;47.034;7.376;2023-05-07T05:40:11;3.97;;;2.65;;
56373;SDS011;58212;47.034;7.376;2023-05-07T05:42:40;3.45;;;2.70;;
56373;SDS011;58212;47.034;7.376;2023-05-07T05:45:09;2.90;;;2.22;;
56373;SDS011;58212;47.034;7.376;2023-05-07T05:47:38;2.88;;;2.67;;
56373;SDS011;58212;47.034;7.376;2023-05-07T05:50:06;5.43;;;2.90;;
56373;SDS011;58212;47.034;7.376;2023-05-07T05:52:39;3.40;;;2.60;;
56373;SDS011;58212;47.034;7.376;2023-05-07T05:55:06;4.85;;;3.47;;
56373;SDS011;58212;47.034;7.376;2023-05-07T05:57:36;3.38;;;3.08;;
56373;SDS011;58212;47.034;7.376;2023-05-07T06:00:05;4.07;;;3.67;;
56373;SDS011;58212;47.034;7.376;2023-05-07T06:02:46;4.15;;;3.85;;
56373;SDS011;58212;47.034;7.376;2023-05-07T06:05:20;4.95;;;3.80;;
56373;SDS011;58212;47.034;7.376;2023-05-07T06:07:51;4.78;;;4.28;;
56373;SDS011;58212;47.034;7.376;2023-05-07T06:10:18;3.95;;;3.55;;
56373;SDS011;58212;47.034;7.376;2023-05-07T06:12:49;4.80;;;4.40;;
56373;SDS011;58212;47.034;7.376;2023-05-07T06:15:17;4.47;;;3.67;;
56373;SDS011;58212;47.034;7.376;2023-05-07T06:17:45;4.60;;;3.60;;
56373;SDS011;58212;47.034;7.376;2023-05-07T06:20:12;4.28;;;3.80;;
56373;SDS011;58212;47.034;7.376;2023-05-07T06:22:40;4.63;;;3.50;;
56373;SDS011;58212;47.034;7.376;2023-05-07T06:25:09;4.50;;;3.60;;
56373;SDS011;58212;47.034;7.376;2023-05-07T06:27:38;4.30;;;3.90;;
56373;SDS011;58212;47.034;7.376;2023-05-07T06:30:06;3.85;;;3.40;;
56373;SDS011;58212;47.034;7.376;2023-05-07T06:32:36;3.42;;;3.08;;
56373;SDS011;58212;47.034;7.376;2023-05-07T06:35:05;4.65;;;3.90;;
56373;SDS011;58212;47.034;7.376;2023-05-07T06:37:40;4.22;;;3.65;;
56373;SDS011;58212;47.034;7.376;2023-05-07T06:40:11;4.07;;;3.67;;
56373;SDS011;58212;47.034;7.376;2023-05-07T06:43:05;4.00;;;3.70;;
56373;SDS011;58212;47.034;7.376;2023-05-07T06:45:41;6.57;;;4.03;;
56373;SDS011;58212;47.034;7.376;2023-05-07T06:48:11;4.50;;;4.00;;
56373;SDS011;58212;47.034;7.376;2023-05-07T06:50:52;6.88;;;4.57;;
56373;SDS011;58212;47.034;7.376;2023-05-07T06:53:22;4.15;;;3.75;;
56373;SDS011;58212;47.034;7.376;2023-05-07T06:55:54;4.60;;;3.92;;
56373;SDS011;58212;47.034;7.376;2023-05-07T06:58:21;4.82;;;3.88;;
56373;SDS011;58212;47.034;7.376;2023-05-07T07:00:49;4.97;;;4.30;;
56373;SDS011;58212;47.034;7.376;2023-05-07T07:03:17;4.65;;;4.25;;
56373;SDS011;58212;47.034;7.376;2023-05-07T07:05:46;4.50;;;4.10;;
56373;SDS011;58212;47.034;7.376;2023-05-07T07:08:14;5.40;;;4.30;;
56373;SDS011;58212;47.034;7.376;2023-05-07T07:10:44;6.00;;;4.78;;
56373;SDS011;58212;47.034;7.376;2023-05-07T07:13:11;6.63;;;5.53;;
56373;SDS011;58212;47.034;7.376;2023-05-07T07:15:38;5.03;;;4.63;;
56373;SDS011;58212;47.034;7.376;2023-05-07T07:18:05;5.53;;;4.15;;
56373;SDS011;58212;47.034;7.376;2023-05-07T07:20:34;6.72;;;4.20;;
56373;SDS011;58212;47.034;7.376;2023-05-07T07:23:02;4.65;;;4.10;;
56373;SDS011;58212;47.034;7.376;2023-05-07T07:25:29;4.35;;;4.05;;
56373;SDS011;58212;47.034;7.376;2023-05-07T07:27:56;6.10;;;4.25;;
56373;SDS011;58212;47.034;7.376;2023-05-07T07:30:24;5.13;;;4.60;;
56373;SDS011;58212;47.034;7.376;2023-05-07T07:32:52;4.65;;;4.35;;
56373;SDS011;58212;47.034;7.376;2023-05-07T07:35:20;6.28;;;4.70;;
56373;SDS011;58212;47.034;7.376;2023-05-07T07:37:50;4.68;;;4.25;;
56373;SDS011;58212;47.034;7.376;2023-05-07T07:40:18;5.35;;;4.30;;
56373;SDS011;58212;47.034;7.376;2023-05-07T07:43:11;5.25;;;4.30;;
56373;SDS011;58212;47.034;7.376;2023-05-07T07:45:39;7.93;;;4.50;;
56373;SDS011;58212;47.034;7.376;2023-05-07T07:48:07;5.60;;;4.47;;
56373;SDS011;58212;47.034;7.376;2023-05-07T07:50:36;5.05;;;4.43;;
56373;SDS011;58212;47.034;7.376;2023-05-07T07:53:06;4.80;;;4.35;;
56373;SDS011;58212;47.034;7.376;2023-05-07T07:55:37;4.57;;;4.18;;
56373;SDS011;58212;47.034;7.376;2023-05-07T07:58:05;4.82;;;4.40;;
56373;SDS011;58212;47.034;7.376;2023-05-07T08:00:33;5.28;;;4.13;;
56373;SDS011;58212;47.034;7.376;2023-05-07T08:03:01;4.60;;;4.20;;
56373;SDS011;58212;47.034;7.376;2023-05-07T08:05:34;5.45;;;4.70;;
56373;SDS011;58212;47.034;7.376;2023-05-07T08:08:04;5.55;;;5.05;;
56373;SDS011;58212;47.034;7.376;2023-05-07T08:10:35;5.80;;;5.00;;
56373;SDS011;58212;47.034;7.376;2023-05-07T08:13:12;4.97;;;4.45;;
56373;SDS011;58212;47.034;7.376;2023-05-07T08:15:41;4.65;;;4.22;;
56373;SDS011;58212;47.034;7.376;2023-05-07T08:18:09;4.30;;;3.80;;
56373;SDS011;58212;47.034;7.376;2023-05-07T08:20:37;5.07;;;3.92;;
56373;SDS011;58212;47.034;7.376;2023-05-07T08:23:06;3.85;;;3.55;;
56373;SDS011;58212;47.034;7.376;2023-05-07T08:25:33;5.57;;;3.90;;
56373;SDS011;58212;47.034;7.376;2023-05-07T08:28:03;4.95;;;4.28;;
56373;SDS011;58212;47.034;7.376;2023-05-07T08:30:30;4.25;;;3.72;;
56373;SDS011;58212;47.034;7.376;2023-05-07T08:32:59;3.92;;;3.60;;
56373;SDS011;58212;47.034;7.376;2023-05-07T08:35:27;4.15;;;3.70;;
56373;SDS011;58212;47.034;7.376;2023-05-07T08:37:54;3.65;;;3.35;;
56373;SDS011;58212;47.034;7.376;2023-05-07T08:40:21;3.78;;;3.45;;
56373;SDS011;58212;47.034;7.376;2023-05-07T08:42:56;3.60;;;3.30;;
56373;SDS011;58212;47.034;7.376;2023-05-07T08:45:28;4.68;;;3.63;;
56373;SDS011;58212;47.034;7.376;2023-05-07T08:54:39;4.13;;;3.70;;
56373;SDS011;58212;47.034;7.376;2023-05-07T08:57:09;5.03;;;3.50;;
56373;SDS011;58212;47.034;7.376;2023-05-07T08:59:37;3.83;;;3.53;;
56373;SDS011;58212;47.034;7.376;2023-05-07T09:02:09;3.53;;;3.17;;
56373;SDS011;58212;47.034;7.376;2023-05-07T09:04:38;4.35;;;3.90;;
56373;SDS011;58212;47.034;7.376;2023-05-07T09:07:07;5.57;;;3.25;;
56373;SDS011;58212;47.034;7.376;2023-05-07T09:09:39;3.53;;;2.92;;
56373;SDS011;58212;47.034;7.376;2023-05-07T09:12:07;5.72;;;3.58;;
56373;SDS011;58212;47.034;7.376;2023-05-07T09:14:35;3.90;;;3.60;;
56373;SDS011;58212;47.034;7.376;2023-05-07T09:17:04;3.88;;;3.47;;
56373;SDS011;58212;47.034;7.376;2023-05-07T09:19:31;5.07;;;4.43;;
56373;SDS011;58212;47.034;7.376;2023-05-07T09:22:02;4.45;;;3.40;;
56373;SDS011;58212;47.034;7.376;2023-05-07T09:24:46;4.00;;;3.58;;
56373;SDS011;58212;47.034;7.376;2023-05-07T09:27:14;4.47;;;3.90;;
56373;SDS011;58212;47.034;7.376;2023-05-07T09:29:45;5.07;;;3.72;;
56373;SDS011;58212;47.034;7.376;2023-05-07T09:32:14;4.43;;;3.97;;
56373;SDS011;58212;47.034;7.376;2023-05-07T09:34:43;5.18;;;4.78;;
56373;SDS011;58212;47.034;7.376;2023-05-07T09:37:13;5.57;;;5.07;;
56373;SDS011;58212;47.034;7.376;2023-05-07T09:39:42;5.18;;;4.70;;
56373;SDS011;58212;47.034;7.376;2023-05-07T09:42:12;5.28;;;4.78;;
56373;SDS011;58212;47.034;7.376;2023-05-07T09:44:41;6.60;;;4.22;;
56373;SDS011;58212;47.034;7.376;2023-05-07T09:47:18;5.75;;;4.40;;
56373;SDS011;58212;47.034;7.376;2023-05-07T09:49:50;5.00;;;4.60;;
56373;SDS011;58212;47.034;7.376;2023-05-07T09:52:23;5.07;;;4.57;;
56373;SDS011;58212;47.034;7.376;2023-05-07T09:54:54;5.68;;;5.18;;
56373;SDS011;58212;47.034;7.376;2023-05-07T09:57:26;5.97;;;5.47;;
56373;SDS011;58212;47.034;7.376;2023-05-07T10:00:00;7.63;;;6.05;;
56373;SDS011;58212;47.034;7.376;2023-05-07T10:02:57;7.10;;;6.45;;
56373;SDS011;58212;47.034;7.376;2023-05-07T10:05:35;7.18;;;6.13;;
56373;SDS011;58212;47.034;7.376;2023-05-07T10:08:04;6.88;;;6.38;;
56373;SDS011;58212;47.034;7.376;2023-05-07T10:10:35;7.90;;;7.20;;
56373;SDS011;58212;47.034;7.376;2023-05-07T10:13:06;8.10;;;6.22;;
56373;SDS011;58212;47.034;7.376;2023-05-07T10:15:38;6.68;;;6.05;;
56373;SDS011;58212;47.034;7.376;2023-05-07T10:18:08;6.78;;;6.20;;
56373;SDS011;58212;47.034;7.376;2023-05-07T10:20:37;6.82;;;6.10;;
56373;SDS011;58212;47.034;7.376;2023-05-07T10:23:09;6.47;;;5.85;;
56373;SDS011;58212;47.034;7.376;2023-05-07T10:25:44;6.30;;;5.80;;
56373;SDS011;58212;47.034;7.376;2023-05-07T10:28:20;5.85;;;5.35;;
56373;SDS011;58212;47.034;7.376;2023-05-07T10:30:53;7.70;;;6.07;;
56373;SDS011;58212;47.034;7.376;2023-05-07T10:33:34;5.75;;;5.25;;
56373;SDS011;58212;47.034;7.376;2023-05-07T10:36:04;6.13;;;5.53;;
56373;SDS011;58212;47.034;7.376;2023-05-07T10:38:33;5.20;;;4.70;;
56373;SDS011;58212;47.034;7.376;2023-05-07T10:41:01;5.55;;;5.05;;
56373;SDS011;58212;47.034;7.376;2023-05-07T10:43:39;6.78;;;5.20;;
56373;SDS011;58212;47.034;7.376;2023-05-07T10:46:09;4.70;;;4.30;;
56373;SDS011;58212;47.034;7.376;2023-05-07T10:52:11;3.55;;;3.25;;
56373;SDS011;58212;47.034;7.376;2023-05-07T10:54:49;5.20;;;4.70;;
56373;SDS011;58212;47.034;7.376;2023-05-07T11:01:14;3.60;;;2.30;;
56373;SDS011;58212;47.034;7.376;2023-05-07T11:04:15;3.17;;;2.00;;
56373;SDS011;58212;47.034;7.376;2023-05-07T11:10:00;4.57;;;1.90;;
56373;SDS011;58212;47.034;7.376;2023-05-07T11:12:57;3.45;;;2.20;;
56373;SDS011;58212;47.034;7.376;2023-05-07T11:15:39;3.30;;;3.00;;
56373;SDS011;58212;47.034;7.376;2023-05-07T11:18:20;3.65;;;2.78;;
56373;SDS011;58212;47.034;7.376;2023-05-07T11:20:53;2.78;;;2.40;;
56373;SDS011;58212;47.034;7.376;2023-05-07T11:26:43;2.75;;;2.10;;
56373;SDS011;58212;47.034;7.376;2023-05-07T11:29:15;3.75;;;2.55;;
56373;SDS011;58212;47.034;7.376;2023-05-07T11:31:43;3.17;;;2.17;;
56373;SDS011;58212;47.034;7.376;2023-05-07T11:34:20;2.85;;;2.58;;
56373;SDS011;58212;47.034;7.376;2023-05-07T11:36:51;3.70;;;2.55;;
56373;SDS011;58212;47.034;7.376;2023-05-07T11:39:25;3.40;;;2.45;;
56373;SDS011;58212;47.034;7.376;2023-05-07T11:41:53;2.80;;;2.60;;
56373;SDS011;58212;47.034;7.376;2023-05-07T11:44:20;4.28;;;2.40;;
56373;SDS011;58212;47.034;7.376;2023-05-07T11:46:48;3.33;;;2.40;;
56373;SDS011;58212;47.034;7.376;2023-05-07T11:49:15;2.78;;;2.58;;
56373;SDS011;58212;47.034;7.376;2023-05-07T11:51:43;2.85;;;2.58;;
56373;SDS011;58212;47.034;7.376;2023-05-07T11:54:18;4.10;;;3.00;;
56373;SDS011;58212;47.034;7.376;2023-05-07T11:56:46;3.75;;;3.20;;
56373;SDS011;58212;47.034;7.376;2023-05-07T11:59:17;4.22;;;2.90;;
56373;SDS011;58212;47.034;7.376;2023-05-07T12:01:48;3.67;;;2.85;;
56373;SDS011;58212;47.034;7.376;2023-05-07T12:04:18;3.38;;;2.47;;
56373;SDS011;58212;47.034;7.376;2023-05-07T12:06:46;3.80;;;3.15;;
56373;SDS011;58212;47.034;7.376;2023-05-07T12:09:20;3.65;;;3.00;;
56373;SDS011;58212;47.034;7.376;2023-05-07T12:11:47;3.03;;;2.70;;
56373;SDS011;58212;47.034;7.376;2023-05-07T12:14:14;4.25;;;2.97;;
56373;SDS011;58212;47.034;7.376;2023-05-07T12:16:42;4.15;;;2.92;;
56373;SDS011;58212;47.034;7.376;2023-05-07T12:19:10;4.45;;;3.88;;
56373;SDS011;58212;47.034;7.376;2023-05-07T12:21:39;4.00;;;3.30;;
56373;SDS011;58212;47.034;7.376;2023-05-07T12:24:10;4.60;;;3.03;;
56373;SDS011;58212;47.034;7.376;2023-05-07T12:26:39;2.65;;;2.45;;
56373;SDS011;58212;47.034;7.376;2023-05-07T12:29:09;4.40;;;2.15;;
56373;SDS011;58212;47.034;7.376;2023-05-07T12:31:39;2.80;;;2.20;;
56373;SDS011;58212;47.034;7.376;2023-05-07T12:34:08;2.22;;;2.03;;
56373;SDS011;58212;47.034;7.376;2023-05-07T12:36:37;1.73;;;1.60;;
56373;SDS011;58212;47.034;7.376;2023-05-07T12:39:06;3.70;;;2.10;;
56373;SDS011;58212;47.034;7.376;2023-05-07T12:41:35;2.95;;;2.30;;
56373;SDS011;58212;47.034;7.376;2023-05-07T12:44:19;2.58;;;2.03;;
56373;SDS011;58212;47.034;7.376;2023-05-07T12:46:49;2.95;;;1.90;;
56373;SDS011;58212;47.034;7.376;2023-05-07T12:49:16;2.33;;;1.80;;
56373;SDS011;58212;47.034;7.376;2023-05-07T12:51:47;2.85;;;2.10;;
56373;SDS011;58212;47.034;7.376;2023-05-07T12:54:14;2.55;;;1.90;;
56373;SDS011;58212;47.034;7.376;2023-05-07T12:56:59;1.67;;;1.58;;
56373;SDS011;58212;47.034;7.376;2023-05-07T12:59:34;3.10;;;1.50;;
56373;SDS011;58212;47.034;7.376;2023-05-07T13:02:03;2.28;;;1.15;;
56373;SDS011;58212;47.034;7.376;2023-05-07T13:04:31;2.65;;;1.50;;
56373;SDS011;58212;47.034;7.376;2023-05-07T13:06:59;1.90;;;1.55;;
56373;SDS011;58212;47.034;7.376;2023-05-07T13:09:26;1.90;;;1.10;;
56373;SDS011;58212;47.034;7.376;2023-05-07T13:11:55;1.38;;;1.25;;
56373;SDS011;58212;47.034;7.376;2023-05-07T13:14:25;1.63;;;1.38;;
56373;SDS011;58212;47.034;7.376;2023-05-07T13:16:53;1.30;;;1.05;;
56373;SDS011;58212;47.034;7.376;2023-05-07T13:19:20;1.92;;;1.38;;
56373;SDS011;58212;47.034;7.376;2023-05-07T13:21:48;1.48;;;1.35;;
56373;SDS011;58212;47.034;7.376;2023-05-07T13:24:15;1.00;;;0.88;;
56373;SDS011;58212;47.034;7.376;2023-05-07T13:26:42;2.25;;;1.40;;
56373;SDS011;58212;47.034;7.376;2023-05-07T13:29:09;1.30;;;1.20;;
56373;SDS011;58212;47.034;7.376;2023-05-07T13:31:38;2.45;;;1.65;;
56373;SDS011;58212;47.034;7.376;2023-05-07T13:34:09;2.97;;;1.20;;
56373;SDS011;58212;47.034;7.376;2023-05-07T13:36:37;1.90;;;1.48;;
56373;SDS011;58212;47.034;7.376;2023-05-07T13:39:29;1.88;;;1.52;;
56373;SDS011;58212;47.034;7.376;2023-05-07T13:41:57;2.00;;;1.45;;
56373;SDS011;58212;47.034;7.376;2023-05-07T13:44:24;2.00;;;1.23;;
56373;SDS011;58212;47.034;7.376;2023-05-07T13:46:54;1.65;;;1.10;;
56373;SDS011;58212;47.034;7.376;2023-05-07T13:49:22;2.03;;;1.60;;
56373;SDS011;58212;47.034;7.376;2023-05-07T13:51:49;1.17;;;1.08;;
56373;SDS011;58212;47.034;7.376;2023-05-07T13:54:16;1.27;;;1.17;;
56373;SDS011;58212;47.034;7.376;2023-05-07T13:56:43;2.05;;;1.17;;
56373;SDS011;58212;47.034;7.376;2023-05-07T13:59:10;2.05;;;1.30;;
56373;SDS011;58212;47.034;7.376;2023-05-07T14:01:39;2.30;;;1.15;;
56373;SDS011;58212;47.034;7.376;2023-05-07T14:04:07;1.75;;;1.20;;
56373;SDS011;58212;47.034;7.376;2023-05-07T14:06:36;1.33;;;1.23;;
56373;SDS011;58212;47.034;7.376;2023-05-07T14:09:05;1.95;;;1.27;;
56373;SDS011;58212;47.034;7.376;2023-05-07T14:12:03;2.03;;;1.40;;
56373;SDS011;58212;47.034;7.376;2023-05-07T14:14:31;2.80;;;1.63;;
56373;SDS011;58212;47.034;7.376;2023-05-07T14:16:59;2.78;;;1.58;;
56373;SDS011;58212;47.034;7.376;2023-05-07T14:19:26;2.28;;;1.70;;
56373;SDS011;58212;47.034;7.376;2023-05-07T14:21:57;1.80;;;1.52;;
56373;SDS011;58212;47.034;7.376;2023-05-07T14:24:25;1.73;;;1.27;;
56373;SDS011;58212;47.034;7.376;2023-05-07T14:26:52;2.30;;;1.48;;
56373;SDS011;58212;47.034;7.376;2023-05-07T14:29:21;1.73;;;1.23;;
56373;SDS011;58212;47.034;7.376;2023-05-07T14:31:48;2.83;;;1.35;;
56373;SDS011;58212;47.034;7.376;2023-05-07T14:34:15;4.03;;;1.40;;
56373;SDS011;58212;47.034;7.376;2023-05-07T14:36:42;2.78;;;1.52;;
56373;SDS011;58212;47.034;7.376;2023-05-07T14:39:10;3.33;;;1.73;;
56373;SDS011;58212;47.034;7.376;2023-05-07T14:41:39;2.03;;;1.42;;
56373;SDS011;58212;47.034;7.376;2023-05-07T14:44:06;2.05;;;1.50;;
56373;SDS011;58212;47.034;7.376;2023-05-07T14:46:34;2.47;;;1.83;;
56373;SDS011;58212;47.034;7.376;2023-05-07T14:49:01;3.33;;;1.95;;
56373;SDS011;58212;47.034;7.376;2023-05-07T14:51:30;2.63;;;1.75;;
56373;SDS011;58212;47.034;7.376;2023-05-07T14:53:58;2.95;;;1.98;;
56373;SDS011;58212;47.034;7.376;2023-05-07T14:56:27;2.67;;;1.90;;
56373;SDS011;58212;47.034;7.376;2023-05-07T14:58:54;2.78;;;1.85;;
56373;SDS011;58212;47.034;7.376;2023-05-07T15:01:22;2.92;;;1.95;;
56373;SDS011;58212;47.034;7.376;2023-05-07T15:03:49;4.38;;;2.38;;
56373;SDS011;58212;47.034;7.376;2023-05-07T15:06:17;2.70;;;1.65;;
56373;SDS011;58212;47.034;7.376;2023-05-07T15:08:45;4.28;;;1.60;;
56373;SDS011;58212;47.034;7.376;2023-05-07T15:11:12;3.75;;;1.70;;
56373;SDS011;58212;47.034;7.376;2023-05-07T15:13:41;5.45;;;1.70;;
56373;SDS011;58212;47.034;7.376;2023-05-07T15:16:09;2.47;;;1.80;;
56373;SDS011;58212;47.034;7.376;2023-05-07T15:18:37;2.10;;;1.35;;
56373;SDS011;58212;47.034;7.376;2023-05-07T15:21:04;3.33;;;1.40;;
56373;SDS011;58212;47.034;7.376;2023-05-07T15:23:32;1.70;;;1.60;;
56373;SDS011;58212;47.034;7.376;2023-05-07T15:26:01;1.98;;;1.67;;